sensor_id;sensor_type;location;lat;lon;timestamp;P1;durP1;ratioP1;P2;durP2;ratioP2
78581;SDS011;67878;46.242;5.974;2023-12-20T00:02:07;7.68;;;6.55;;
78581;SDS011;67878;46.242;5.974;2023-12-20T00:04:33;8.65;;;6.95;;
78581;SDS011;67878;46.242;5.974;2023-12-20T00:06:58;8.02;;;6.80;;
78581;SDS011;67878;46.242;5.974;2023-12-20T00:09:23;8.85;;;7.00;;
78581;SDS011;67878;46.242;5.974;2023-12-20T00:11:49;7.63;;;6.28;;
78581;SDS011;67878;46.242;5.974;2023-12-20T00:14:14;9.02;;;6.57;;
78581;SDS011;67878;46.242;5.974;2023-12-20T00:16:40;8.27;;;6.80;;
78581;SDS011;67878;46.242;5.974;2023-12-20T00:19:05;8.45;;;6.78;;
78581;SDS011;67878;46.242;5.974;2023-12-20T00:21:31;7.65;;;6.57;;
78581;SDS011;67878;46.242;5.974;2023-12-20T00:23:56;7.53;;;6.10;;
78581;SDS011;67878;46.242;5.974;2023-12-20T00:26:21;9.43;;;7.35;;
78581;SDS011;67878;46.242;5.974;2023-12-20T00:28:47;7.47;;;6.05;;
78581;SDS011;67878;46.242;5.974;2023-12-20T00:31:12;9.02;;;6.28;;
78581;SDS011;67878;46.242;5.974;2023-12-20T00:33:38;7.90;;;6.53;;
78581;SDS011;67878;46.242;5.974;2023-12-20T00:36:04;9.32;;;6.93;;
78581;SDS011;67878;46.242;5.974;2023-12-20T00:38:30;7.63;;;6.38;;
78581;SDS011;67878;46.242;5.974;2023-12-20T00:40:56;7.10;;;5.95;;
78581;SDS011;67878;46.242;5.974;2023-12-20T00:43:21;7.65;;;6.00;;
78581;SDS011;67878;46.242;5.974;2023-12-20T00:45:46;7.47;;;6.32;;
78581;SDS011;67878;46.242;5.974;2023-12-20T00:48:12;6.63;;;5.90;;
78581;SDS011;67878;46.242;5.974;2023-12-20T00:50:37;8.93;;;6.32;;
78581;SDS011;67878;46.242;5.974;2023-12-20T00:53:03;6.70;;;5.65;;
78581;SDS011;67878;46.242;5.974;2023-12-20T00:55:28;8.68;;;6.40;;
78581;SDS011;67878;46.242;5.974;2023-12-20T00:57:54;7.93;;;6.13;;
78581;SDS011;67878;46.242;5.974;2023-12-20T01:00:19;8.32;;;6.20;;
78581;SDS011;67878;46.242;5.974;2023-12-20T01:02:44;6.38;;;5.65;;
78581;SDS011;67878;46.242;5.974;2023-12-20T01:05:11;6.75;;;5.95;;
78581;SDS011;67878;46.242;5.974;2023-12-20T01:07:37;9.15;;;6.50;;
78581;SDS011;67878;46.242;5.974;2023-12-20T01:10:02;7.38;;;5.97;;
78581;SDS011;67878;46.242;5.974;2023-12-20T01:12:28;7.55;;;6.13;;
78581;SDS011;67878;46.242;5.974;2023-12-20T01:14:54;8.35;;;6.57;;
78581;SDS011;67878;46.242;5.974;2023-12-20T01:17:19;6.53;;;5.70;;
78581;SDS011;67878;46.242;5.974;2023-12-20T01:19:44;8.40;;;6.18;;
78581;SDS011;67878;46.242;5.974;2023-12-20T01:22:10;7.18;;;5.53;;
78581;SDS011;67878;46.242;5.974;2023-12-20T01:24:35;6.15;;;5.35;;
78581;SDS011;67878;46.242;5.974;2023-12-20T01:27:01;10.00;;;5.63;;
78581;SDS011;67878;46.242;5.974;2023-12-20T01:29:27;9.60;;;5.78;;
78581;SDS011;67878;46.242;5.974;2023-12-20T01:31:52;10.05;;;5.32;;
78581;SDS011;67878;46.242;5.974;2023-12-20T01:34:18;8.65;;;5.68;;
78581;SDS011;67878;46.242;5.974;2023-12-20T01:36:43;9.52;;;5.82;;
78581;SDS011;67878;46.242;5.974;2023-12-20T01:39:09;7.75;;;5.10;;
78581;SDS011;67878;46.242;5.974;2023-12-20T01:41:35;8.75;;;5.18;;
78581;SDS011;67878;46.242;5.974;2023-12-20T01:44:00;6.85;;;5.35;;
78581;SDS011;67878;46.242;5.974;2023-12-20T01:46:25;8.25;;;5.57;;
78581;SDS011;67878;46.242;5.974;2023-12-20T01:48:51;6.40;;;5.40;;
78581;SDS011;67878;46.242;5.974;2023-12-20T01:51:17;6.88;;;5.15;;
78581;SDS011;67878;46.242;5.974;2023-12-20T01:53:44;5.82;;;4.70;;
78581;SDS011;67878;46.242;5.974;2023-12-20T01:56:10;8.55;;;6.03;;
78581;SDS011;67878;46.242;5.974;2023-12-20T01:58:41;7.57;;;4.97;;
78581;SDS011;67878;46.242;5.974;2023-12-20T02:01:09;6.70;;;4.68;;
78581;SDS011;67878;46.242;5.974;2023-12-20T02:03:35;6.45;;;4.80;;
78581;SDS011;67878;46.242;5.974;2023-12-20T02:06:01;7.95;;;5.28;;
78581;SDS011;67878;46.242;5.974;2023-12-20T02:08:28;5.97;;;5.10;;
78581;SDS011;67878;46.242;5.974;2023-12-20T02:10:54;5.82;;;4.70;;
78581;SDS011;67878;46.242;5.974;2023-12-20T02:13:21;5.47;;;4.57;;
78581;SDS011;67878;46.242;5.974;2023-12-20T02:15:46;7.55;;;4.53;;
78581;SDS011;67878;46.242;5.974;2023-12-20T02:18:12;6.13;;;4.95;;
78581;SDS011;67878;46.242;5.974;2023-12-20T02:23:05;5.63;;;5.07;;
78581;SDS011;67878;46.242;5.974;2023-12-20T02:25:31;5.75;;;4.68;;
78581;SDS011;67878;46.242;5.974;2023-12-20T02:27:56;6.32;;;4.50;;
78581;SDS011;67878;46.242;5.974;2023-12-20T02:30:22;6.72;;;4.70;;
78581;SDS011;67878;46.242;5.974;2023-12-20T02:32:47;5.65;;;4.93;;
78581;SDS011;67878;46.242;5.974;2023-12-20T02:35:14;4.53;;;4.13;;
78581;SDS011;67878;46.242;5.974;2023-12-20T02:37:40;6.22;;;4.85;;
78581;SDS011;67878;46.242;5.974;2023-12-20T02:40:05;5.57;;;4.30;;
78581;SDS011;67878;46.242;5.974;2023-12-20T02:42:33;5.05;;;4.55;;
78581;SDS011;67878;46.242;5.974;2023-12-20T02:44:58;5.10;;;4.60;;
78581;SDS011;67878;46.242;5.974;2023-12-20T02:47:23;5.75;;;4.60;;
78581;SDS011;67878;46.242;5.974;2023-12-20T02:49:49;5.07;;;4.57;;
78581;SDS011;67878;46.242;5.974;2023-12-20T02:52:14;5.70;;;4.63;;
78581;SDS011;67878;46.242;5.974;2023-12-20T02:54:40;5.32;;;4.57;;
78581;SDS011;67878;46.242;5.974;2023-12-20T02:57:05;5.13;;;4.53;;
78581;SDS011;67878;46.242;5.974;2023-12-20T02:59:31;5.07;;;4.22;;
78581;SDS011;67878;46.242;5.974;2023-12-20T03:01:57;4.65;;;4.15;;
78581;SDS011;67878;46.242;5.974;2023-12-20T03:04:22;5.63;;;4.30;;
78581;SDS011;67878;46.242;5.974;2023-12-20T03:06:47;6.18;;;4.57;;
78581;SDS011;67878;46.242;5.974;2023-12-20T03:09:13;4.80;;;3.90;;
78581;SDS011;67878;46.242;5.974;2023-12-20T03:11:38;5.00;;;4.35;;
78581;SDS011;67878;46.242;5.974;2023-12-20T03:14:04;5.32;;;4.28;;
78581;SDS011;67878;46.242;5.974;2023-12-20T03:16:29;4.88;;;4.22;;
78581;SDS011;67878;46.242;5.974;2023-12-20T03:18:56;5.80;;;4.72;;
78581;SDS011;67878;46.242;5.974;2023-12-20T03:21:21;5.70;;;4.32;;
78581;SDS011;67878;46.242;5.974;2023-12-20T03:23:47;4.63;;;3.80;;
78581;SDS011;67878;46.242;5.974;2023-12-20T03:26:12;5.72;;;4.15;;
78581;SDS011;67878;46.242;5.974;2023-12-20T03:28:39;5.07;;;3.78;;
78581;SDS011;67878;46.242;5.974;2023-12-20T03:31:04;4.53;;;3.92;;
78581;SDS011;67878;46.242;5.974;2023-12-20T03:33:30;5.55;;;3.97;;
78581;SDS011;67878;46.242;5.974;2023-12-20T03:35:55;4.97;;;4.10;;
78581;SDS011;67878;46.242;5.974;2023-12-20T03:38:21;4.25;;;3.72;;
78581;SDS011;67878;46.242;5.974;2023-12-20T03:40:49;5.65;;;4.03;;
78581;SDS011;67878;46.242;5.974;2023-12-20T03:43:14;4.70;;;4.20;;
78581;SDS011;67878;46.242;5.974;2023-12-20T03:45:40;4.57;;;3.75;;
78581;SDS011;67878;46.242;5.974;2023-12-20T03:48:06;5.80;;;4.13;;
78581;SDS011;67878;46.242;5.974;2023-12-20T03:50:32;5.05;;;3.80;;
78581;SDS011;67878;46.242;5.974;2023-12-20T03:52:57;4.95;;;3.90;;
78581;SDS011;67878;46.242;5.974;2023-12-20T03:55:23;4.10;;;3.70;;
78581;SDS011;67878;46.242;5.974;2023-12-20T03:57:48;4.80;;;3.70;;
78581;SDS011;67878;46.242;5.974;2023-12-20T04:00:14;3.85;;;3.50;;
78581;SDS011;67878;46.242;5.974;2023-12-20T04:02:40;3.92;;;3.53;;
78581;SDS011;67878;46.242;5.974;2023-12-20T04:05:07;5.35;;;3.78;;
78581;SDS011;67878;46.242;5.974;2023-12-20T04:07:33;4.53;;;3.92;;
78581;SDS011;67878;46.242;5.974;2023-12-20T04:09:59;4.10;;;3.70;;
78581;SDS011;67878;46.242;5.974;2023-12-20T04:12:25;4.93;;;3.90;;
78581;SDS011;67878;46.242;5.974;2023-12-20T04:14:51;4.38;;;3.35;;
78581;SDS011;67878;46.242;5.974;2023-12-20T04:17:17;4.53;;;4.13;;
78581;SDS011;67878;46.242;5.974;2023-12-20T04:19:43;3.72;;;3.40;;
78581;SDS011;67878;46.242;5.974;2023-12-20T04:22:08;4.18;;;3.40;;
78581;SDS011;67878;46.242;5.974;2023-12-20T04:24:34;3.60;;;3.30;;
78581;SDS011;67878;46.242;5.974;2023-12-20T04:27:00;4.00;;;3.33;;
78581;SDS011;67878;46.242;5.974;2023-12-20T04:29:25;4.05;;;3.40;;
78581;SDS011;67878;46.242;5.974;2023-12-20T04:31:51;4.07;;;3.67;;
78581;SDS011;67878;46.242;5.974;2023-12-20T04:34:16;3.90;;;3.50;;
78581;SDS011;67878;46.242;5.974;2023-12-20T04:36:42;3.58;;;3.28;;
78581;SDS011;67878;46.242;5.974;2023-12-20T04:39:08;4.28;;;3.40;;
78581;SDS011;67878;46.242;5.974;2023-12-20T04:41:33;3.80;;;3.50;;
78581;SDS011;67878;46.242;5.974;2023-12-20T04:43:59;3.33;;;2.90;;
78581;SDS011;67878;46.242;5.974;2023-12-20T04:46:25;3.90;;;3.47;;
78581;SDS011;67878;46.242;5.974;2023-12-20T04:48:51;3.67;;;3.38;;
78581;SDS011;67878;46.242;5.974;2023-12-20T04:51:16;3.63;;;3.33;;
78581;SDS011;67878;46.242;5.974;2023-12-20T04:53:42;4.10;;;3.63;;
78581;SDS011;67878;46.242;5.974;2023-12-20T04:56:07;3.47;;;3.15;;
78581;SDS011;67878;46.242;5.974;2023-12-20T04:58:32;4.00;;;3.25;;
78581;SDS011;67878;46.242;5.974;2023-12-20T05:00:58;3.85;;;3.45;;
78581;SDS011;67878;46.242;5.974;2023-12-20T05:03:24;3.50;;;3.20;;
78581;SDS011;67878;46.242;5.974;2023-12-20T05:05:49;4.38;;;3.65;;
78581;SDS011;67878;46.242;5.974;2023-12-20T05:08:14;3.60;;;3.30;;
78581;SDS011;67878;46.242;5.974;2023-12-20T05:10:40;4.38;;;3.25;;
78581;SDS011;67878;46.242;5.974;2023-12-20T05:13:06;4.32;;;3.92;;
78581;SDS011;67878;46.242;5.974;2023-12-20T05:15:31;4.15;;;3.22;;
78581;SDS011;67878;46.242;5.974;2023-12-20T05:17:56;4.18;;;3.63;;
78581;SDS011;67878;46.242;5.974;2023-12-20T05:20:22;4.05;;;3.53;;
78581;SDS011;67878;46.242;5.974;2023-12-20T05:22:48;4.05;;;3.47;;
78581;SDS011;67878;46.242;5.974;2023-12-20T05:25:13;3.78;;;3.28;;
78581;SDS011;67878;46.242;5.974;2023-12-20T05:27:39;3.95;;;3.38;;
78581;SDS011;67878;46.242;5.974;2023-12-20T05:30:05;4.72;;;3.42;;
78581;SDS011;67878;46.242;5.974;2023-12-20T05:32:31;4.22;;;3.30;;
78581;SDS011;67878;46.242;5.974;2023-12-20T05:34:56;4.28;;;3.25;;
78581;SDS011;67878;46.242;5.974;2023-12-20T05:37:21;3.63;;;3.20;;
78581;SDS011;67878;46.242;5.974;2023-12-20T05:39:47;3.63;;;3.15;;
78581;SDS011;67878;46.242;5.974;2023-12-20T05:42:12;4.00;;;3.15;;
78581;SDS011;67878;46.242;5.974;2023-12-20T05:44:38;4.40;;;3.20;;
78581;SDS011;67878;46.242;5.974;2023-12-20T05:47:03;4.28;;;3.40;;
78581;SDS011;67878;46.242;5.974;2023-12-20T05:49:29;4.03;;;3.38;;
78581;SDS011;67878;46.242;5.974;2023-12-20T05:51:54;3.65;;;2.92;;
78581;SDS011;67878;46.242;5.974;2023-12-20T05:54:20;3.47;;;2.90;;
78581;SDS011;67878;46.242;5.974;2023-12-20T05:56:46;3.85;;;3.35;;
78581;SDS011;67878;46.242;5.974;2023-12-20T05:59:11;4.20;;;3.25;;
78581;SDS011;67878;46.242;5.974;2023-12-20T06:01:37;4.00;;;3.38;;
78581;SDS011;67878;46.242;5.974;2023-12-20T06:04:03;5.10;;;3.60;;
78581;SDS011;67878;46.242;5.974;2023-12-20T06:06:29;4.40;;;3.42;;
78581;SDS011;67878;46.242;5.974;2023-12-20T06:08:55;4.40;;;3.80;;
78581;SDS011;67878;46.242;5.974;2023-12-20T06:11:21;5.72;;;3.30;;
78581;SDS011;67878;46.242;5.974;2023-12-20T06:13:46;4.00;;;3.58;;
78581;SDS011;67878;46.242;5.974;2023-12-20T06:16:12;4.80;;;3.70;;
78581;SDS011;67878;46.242;5.974;2023-12-20T06:18:37;6.85;;;3.67;;
78581;SDS011;67878;46.242;5.974;2023-12-20T06:21:03;5.78;;;3.13;;
78581;SDS011;67878;46.242;5.974;2023-12-20T06:23:29;4.15;;;3.22;;
78581;SDS011;67878;46.242;5.974;2023-12-20T06:25:54;5.68;;;3.65;;
78581;SDS011;67878;46.242;5.974;2023-12-20T06:28:20;5.35;;;3.55;;
78581;SDS011;67878;46.242;5.974;2023-12-20T06:30:45;3.72;;;2.83;;
78581;SDS011;67878;46.242;5.974;2023-12-20T06:33:14;4.13;;;3.63;;
78581;SDS011;67878;46.242;5.974;2023-12-20T06:35:39;4.72;;;3.55;;
78581;SDS011;67878;46.242;5.974;2023-12-20T06:38:05;11.15;;;7.28;;
78581;SDS011;67878;46.242;5.974;2023-12-20T06:40:30;6.13;;;4.25;;
78581;SDS011;67878;46.242;5.974;2023-12-20T06:42:56;7.70;;;3.88;;
78581;SDS011;67878;46.242;5.974;2023-12-20T06:45:21;11.88;;;4.63;;
78581;SDS011;67878;46.242;5.974;2023-12-20T06:47:46;8.75;;;3.90;;
78581;SDS011;67878;46.242;5.974;2023-12-20T06:50:12;7.05;;;5.32;;
78581;SDS011;67878;46.242;5.974;2023-12-20T06:52:37;6.07;;;4.18;;
78581;SDS011;67878;46.242;5.974;2023-12-20T06:55:03;5.80;;;3.85;;
78581;SDS011;67878;46.242;5.974;2023-12-20T06:57:29;8.38;;;4.85;;
78581;SDS011;67878;46.242;5.974;2023-12-20T06:59:55;5.35;;;4.05;;
78581;SDS011;67878;46.242;5.974;2023-12-20T07:02:20;4.63;;;3.55;;
78581;SDS011;67878;46.242;5.974;2023-12-20T07:04:47;4.13;;;3.25;;
78581;SDS011;67878;46.242;5.974;2023-12-20T07:07:13;5.47;;;3.33;;
78581;SDS011;67878;46.242;5.974;2023-12-20T07:09:38;5.43;;;2.95;;
78581;SDS011;67878;46.242;5.974;2023-12-20T07:12:04;4.18;;;3.08;;
78581;SDS011;67878;46.242;5.974;2023-12-20T07:14:29;4.38;;;3.67;;
78581;SDS011;67878;46.242;5.974;2023-12-20T07:16:55;4.53;;;2.97;;
78581;SDS011;67878;46.242;5.974;2023-12-20T07:19:20;4.28;;;3.00;;
78581;SDS011;67878;46.242;5.974;2023-12-20T07:21:45;6.35;;;3.40;;
78581;SDS011;67878;46.242;5.974;2023-12-20T07:24:11;8.32;;;3.60;;
78581;SDS011;67878;46.242;5.974;2023-12-20T07:26:36;11.88;;;3.10;;
78581;SDS011;67878;46.242;5.974;2023-12-20T07:29:03;9.35;;;3.63;;
78581;SDS011;67878;46.242;5.974;2023-12-20T07:31:29;6.55;;;3.58;;
78581;SDS011;67878;46.242;5.974;2023-12-20T07:33:54;6.78;;;3.05;;
78581;SDS011;67878;46.242;5.974;2023-12-20T07:36:20;5.70;;;2.80;;
78581;SDS011;67878;46.242;5.974;2023-12-20T07:38:46;5.57;;;3.13;;
78581;SDS011;67878;46.242;5.974;2023-12-20T07:41:12;4.25;;;3.03;;
78581;SDS011;67878;46.242;5.974;2023-12-20T07:43:40;5.05;;;3.40;;
78581;SDS011;67878;46.242;5.974;2023-12-20T07:46:06;4.22;;;3.78;;
78581;SDS011;67878;46.242;5.974;2023-12-20T07:48:36;4.97;;;3.20;;
78581;SDS011;67878;46.242;5.974;2023-12-20T07:51:02;4.32;;;3.22;;
78581;SDS011;67878;46.242;5.974;2023-12-20T07:53:28;4.13;;;3.10;;
78581;SDS011;67878;46.242;5.974;2023-12-20T07:55:54;4.63;;;3.20;;
78581;SDS011;67878;46.242;5.974;2023-12-20T07:58:20;4.13;;;3.30;;
78581;SDS011;67878;46.242;5.974;2023-12-20T08:00:46;4.55;;;3.20;;
78581;SDS011;67878;46.242;5.974;2023-12-20T08:03:11;3.97;;;3.13;;
78581;SDS011;67878;46.242;5.974;2023-12-20T08:05:37;4.03;;;3.63;;
78581;SDS011;67878;46.242;5.974;2023-12-20T08:08:05;3.78;;;3.03;;
78581;SDS011;67878;46.242;5.974;2023-12-20T08:10:31;3.92;;;3.28;;
78581;SDS011;67878;46.242;5.974;2023-12-20T08:12:56;5.05;;;3.70;;
78581;SDS011;67878;46.242;5.974;2023-12-20T08:15:22;5.13;;;3.63;;
78581;SDS011;67878;46.242;5.974;2023-12-20T08:17:48;4.43;;;3.72;;
78581;SDS011;67878;46.242;5.974;2023-12-20T08:20:15;4.38;;;3.10;;
78581;SDS011;67878;46.242;5.974;2023-12-20T08:22:41;3.90;;;3.50;;
78581;SDS011;67878;46.242;5.974;2023-12-20T08:25:07;5.28;;;3.72;;
78581;SDS011;67878;46.242;5.974;2023-12-20T08:27:33;4.68;;;3.70;;
78581;SDS011;67878;46.242;5.974;2023-12-20T08:30:02;3.92;;;3.45;;
78581;SDS011;67878;46.242;5.974;2023-12-20T08:32:29;4.03;;;3.25;;
78581;SDS011;67878;46.242;5.974;2023-12-20T08:34:55;4.40;;;3.75;;
78581;SDS011;67878;46.242;5.974;2023-12-20T08:37:20;3.40;;;3.10;;
78581;SDS011;67878;46.242;5.974;2023-12-20T08:39:45;3.72;;;2.97;;
78581;SDS011;67878;46.242;5.974;2023-12-20T08:42:11;3.95;;;3.40;;
78581;SDS011;67878;46.242;5.974;2023-12-20T08:44:36;4.38;;;3.60;;
78581;SDS011;67878;46.242;5.974;2023-12-20T08:47:02;4.97;;;3.75;;
78581;SDS011;67878;46.242;5.974;2023-12-20T08:49:28;5.05;;;3.97;;
78581;SDS011;67878;46.242;5.974;2023-12-20T08:51:54;4.47;;;3.60;;
78581;SDS011;67878;46.242;5.974;2023-12-20T08:54:20;5.15;;;3.22;;
78581;SDS011;67878;46.242;5.974;2023-12-20T08:56:45;3.97;;;3.08;;
78581;SDS011;67878;46.242;5.974;2023-12-20T08:59:11;5.32;;;4.07;;
78581;SDS011;67878;46.242;5.974;2023-12-20T09:01:37;5.90;;;4.72;;
78581;SDS011;67878;46.242;5.974;2023-12-20T09:04:02;4.20;;;3.53;;
78581;SDS011;67878;46.242;5.974;2023-12-20T09:06:28;4.70;;;3.88;;
78581;SDS011;67878;46.242;5.974;2023-12-20T09:08:54;4.82;;;3.55;;
78581;SDS011;67878;46.242;5.974;2023-12-20T09:11:20;3.30;;;3.00;;
78581;SDS011;67878;46.242;5.974;2023-12-20T09:13:45;3.35;;;2.90;;
78581;SDS011;67878;46.242;5.974;2023-12-20T09:16:11;5.30;;;2.90;;
78581;SDS011;67878;46.242;5.974;2023-12-20T09:18:38;4.38;;;3.60;;
78581;SDS011;67878;46.242;5.974;2023-12-20T09:21:03;6.45;;;5.10;;
78581;SDS011;67878;46.242;5.974;2023-12-20T09:23:29;3.22;;;2.85;;
78581;SDS011;67878;46.242;5.974;2023-12-20T09:25:55;2.88;;;2.55;;
78581;SDS011;67878;46.242;5.974;2023-12-20T09:28:20;3.47;;;2.33;;
78581;SDS011;67878;46.242;5.974;2023-12-20T09:30:46;3.63;;;2.60;;
78581;SDS011;67878;46.242;5.974;2023-12-20T09:33:14;5.30;;;4.13;;
78581;SDS011;67878;46.242;5.974;2023-12-20T09:38:06;4.57;;;4.03;;
78581;SDS011;67878;46.242;5.974;2023-12-20T09:40:32;5.47;;;4.90;;
78581;SDS011;67878;46.242;5.974;2023-12-20T09:45:45;7.40;;;4.05;;
78581;SDS011;67878;46.242;5.974;2023-12-20T09:48:12;5.40;;;4.82;;
78581;SDS011;67878;46.242;5.974;2023-12-20T09:50:40;6.15;;;4.43;;
78581;SDS011;67878;46.242;5.974;2023-12-20T09:53:07;5.20;;;4.70;;
78581;SDS011;67878;46.242;5.974;2023-12-20T09:55:35;6.03;;;4.80;;
78581;SDS011;67878;46.242;5.974;2023-12-20T09:58:02;5.63;;;4.50;;
78581;SDS011;67878;46.242;5.974;2023-12-20T10:00:27;4.55;;;3.92;;
78581;SDS011;67878;46.242;5.974;2023-12-20T10:02:59;5.47;;;4.60;;
78581;SDS011;67878;46.242;5.974;2023-12-20T10:05:29;6.20;;;5.20;;
78581;SDS011;67878;46.242;5.974;2023-12-20T10:07:58;5.63;;;4.32;;
78581;SDS011;67878;46.242;5.974;2023-12-20T10:10:24;4.72;;;4.25;;
78581;SDS011;67878;46.242;5.974;2023-12-20T10:15:27;6.22;;;4.45;;
78581;SDS011;67878;46.242;5.974;2023-12-20T10:17:53;4.72;;;3.95;;
78581;SDS011;67878;46.242;5.974;2023-12-20T10:20:19;4.03;;;3.30;;
78581;SDS011;67878;46.242;5.974;2023-12-20T10:22:45;4.97;;;4.13;;
78581;SDS011;67878;46.242;5.974;2023-12-20T10:25:11;5.43;;;4.05;;
78581;SDS011;67878;46.242;5.974;2023-12-20T10:27:37;4.35;;;3.95;;
78581;SDS011;67878;46.242;5.974;2023-12-20T10:30:03;4.70;;;4.18;;
78581;SDS011;67878;46.242;5.974;2023-12-20T10:32:31;3.85;;;3.50;;
78581;SDS011;67878;46.242;5.974;2023-12-20T10:34:57;4.40;;;3.70;;
78581;SDS011;67878;46.242;5.974;2023-12-20T10:37:24;4.82;;;3.78;;
78581;SDS011;67878;46.242;5.974;2023-12-20T10:39:50;4.40;;;3.65;;
78581;SDS011;67878;46.242;5.974;2023-12-20T10:42:21;3.17;;;2.88;;
78581;SDS011;67878;46.242;5.974;2023-12-20T10:44:50;3.83;;;3.03;;
78581;SDS011;67878;46.242;5.974;2023-12-20T10:47:16;3.50;;;2.95;;
78581;SDS011;67878;46.242;5.974;2023-12-20T10:49:42;2.95;;;2.65;;
78581;SDS011;67878;46.242;5.974;2023-12-20T10:52:09;3.83;;;3.17;;
78581;SDS011;67878;46.242;5.974;2023-12-20T10:54:36;3.67;;;3.10;;
78581;SDS011;67878;46.242;5.974;2023-12-20T10:57:03;3.85;;;3.05;;
78581;SDS011;67878;46.242;5.974;2023-12-20T10:59:30;5.93;;;4.25;;
78581;SDS011;67878;46.242;5.974;2023-12-20T11:02:00;4.95;;;3.53;;
78581;SDS011;67878;46.242;5.974;2023-12-20T11:04:44;4.85;;;3.70;;
78581;SDS011;67878;46.242;5.974;2023-12-20T11:07:32;4.43;;;3.20;;
78581;SDS011;67878;46.242;5.974;2023-12-20T11:10:18;3.97;;;3.33;;
78581;SDS011;67878;46.242;5.974;2023-12-20T11:13:53;4.07;;;3.08;;
78581;SDS011;67878;46.242;5.974;2023-12-20T11:15:52;3.30;;;2.88;;
78581;SDS011;67878;46.242;5.974;2023-12-20T11:18:17;3.53;;;2.80;;
78581;SDS011;67878;46.242;5.974;2023-12-20T11:20:43;3.35;;;3.05;;
78581;SDS011;67878;46.242;5.974;2023-12-20T11:23:09;3.60;;;3.00;;
78581;SDS011;67878;46.242;5.974;2023-12-20T11:25:48;2.97;;;2.45;;
78581;SDS011;67878;46.242;5.974;2023-12-20T11:28:20;4.72;;;3.55;;
78581;SDS011;67878;46.242;5.974;2023-12-20T11:30:48;3.85;;;2.88;;
78581;SDS011;67878;46.242;5.974;2023-12-20T11:33:15;4.88;;;3.03;;
78581;SDS011;67878;46.242;5.974;2023-12-20T11:35:42;3.88;;;3.30;;
78581;SDS011;67878;46.242;5.974;2023-12-20T11:38:10;4.20;;;3.40;;
78581;SDS011;67878;46.242;5.974;2023-12-20T11:40:36;2.97;;;2.58;;
78581;SDS011;67878;46.242;5.974;2023-12-20T11:43:03;3.50;;;3.03;;
78581;SDS011;67878;46.242;5.974;2023-12-20T11:45:32;3.72;;;2.97;;
78581;SDS011;67878;46.242;5.974;2023-12-20T11:47:59;3.25;;;2.95;;
78581;SDS011;67878;46.242;5.974;2023-12-20T11:50:27;3.40;;;2.50;;
78581;SDS011;67878;46.242;5.974;2023-12-20T11:52:53;2.75;;;2.50;;
78581;SDS011;67878;46.242;5.974;2023-12-20T11:55:20;3.45;;;2.13;;
78581;SDS011;67878;46.242;5.974;2023-12-20T11:57:52;3.95;;;2.33;;
78581;SDS011;67878;46.242;5.974;2023-12-20T12:00:19;3.13;;;2.13;;
78581;SDS011;67878;46.242;5.974;2023-12-20T12:02:58;1.95;;;1.75;;
78581;SDS011;67878;46.242;5.974;2023-12-20T12:05:24;2.03;;;1.83;;
78581;SDS011;67878;46.242;5.974;2023-12-20T12:07:49;2.83;;;2.30;;
78581;SDS011;67878;46.242;5.974;2023-12-20T12:10:14;2.15;;;1.88;;
78581;SDS011;67878;46.242;5.974;2023-12-20T12:12:40;2.38;;;1.85;;
78581;SDS011;67878;46.242;5.974;2023-12-20T12:15:06;2.70;;;2.20;;
78581;SDS011;67878;46.242;5.974;2023-12-20T12:17:31;2.45;;;2.08;;
78581;SDS011;67878;46.242;5.974;2023-12-20T12:20:03;2.58;;;2.03;;
78581;SDS011;67878;46.242;5.974;2023-12-20T12:22:30;3.25;;;2.10;;
78581;SDS011;67878;46.242;5.974;2023-12-20T12:24:58;2.83;;;1.90;;
78581;SDS011;67878;46.242;5.974;2023-12-20T12:27:24;2.45;;;1.90;;
78581;SDS011;67878;46.242;5.974;2023-12-20T12:30:00;3.30;;;2.15;;
78581;SDS011;67878;46.242;5.974;2023-12-20T12:32:32;2.78;;;2.00;;
78581;SDS011;67878;46.242;5.974;2023-12-20T12:34:58;2.03;;;1.73;;
78581;SDS011;67878;46.242;5.974;2023-12-20T12:37:23;2.10;;;1.90;;
78581;SDS011;67878;46.242;5.974;2023-12-20T12:39:49;2.13;;;1.92;;
78581;SDS011;67878;46.242;5.974;2023-12-20T12:42:15;3.05;;;2.10;;
78581;SDS011;67878;46.242;5.974;2023-12-20T12:44:40;2.15;;;1.73;;
78581;SDS011;67878;46.242;5.974;2023-12-20T12:47:07;2.20;;;1.90;;
78581;SDS011;67878;46.242;5.974;2023-12-20T12:49:33;1.95;;;1.75;;
78581;SDS011;67878;46.242;5.974;2023-12-20T12:51:58;1.85;;;1.52;;
78581;SDS011;67878;46.242;5.974;2023-12-20T12:54:24;2.35;;;1.85;;
78581;SDS011;67878;46.242;5.974;2023-12-20T12:56:49;2.15;;;1.80;;
78581;SDS011;67878;46.242;5.974;2023-12-20T12:59:15;4.32;;;1.98;;
78581;SDS011;67878;46.242;5.974;2023-12-20T13:01:41;1.73;;;1.63;;
78581;SDS011;67878;46.242;5.974;2023-12-20T13:04:07;2.83;;;1.98;;
78581;SDS011;67878;46.242;5.974;2023-12-20T13:06:36;6.22;;;1.95;;
78581;SDS011;67878;46.242;5.974;2023-12-20T13:09:02;3.00;;;2.00;;
78581;SDS011;67878;46.242;5.974;2023-12-20T13:11:29;8.18;;;1.67;;
78581;SDS011;67878;46.242;5.974;2023-12-20T13:13:56;2.45;;;2.00;;
78581;SDS011;67878;46.242;5.974;2023-12-20T13:16:26;2.65;;;1.92;;
78581;SDS011;67878;46.242;5.974;2023-12-20T13:18:51;1.50;;;1.40;;
78581;SDS011;67878;46.242;5.974;2023-12-20T13:21:17;1.88;;;1.48;;
78581;SDS011;67878;46.242;5.974;2023-12-20T13:23:42;2.05;;;1.63;;
78581;SDS011;67878;46.242;5.974;2023-12-20T13:26:08;1.67;;;1.58;;
78581;SDS011;67878;46.242;5.974;2023-12-20T13:28:33;2.03;;;1.70;;
78581;SDS011;67878;46.242;5.974;2023-12-20T13:30:59;2.13;;;1.70;;
78581;SDS011;67878;46.242;5.974;2023-12-20T13:33:24;2.15;;;1.70;;
78581;SDS011;67878;46.242;5.974;2023-12-20T13:35:50;1.67;;;1.55;;
78581;SDS011;67878;46.242;5.974;2023-12-20T13:38:16;1.73;;;1.60;;
78581;SDS011;67878;46.242;5.974;2023-12-20T13:40:41;1.80;;;1.48;;
78581;SDS011;67878;46.242;5.974;2023-12-20T13:43:08;1.70;;;1.48;;
78581;SDS011;67878;46.242;5.974;2023-12-20T13:48:01;1.92;;;1.35;;
78581;SDS011;67878;46.242;5.974;2023-12-20T13:50:26;3.10;;;1.90;;
78581;SDS011;67878;46.242;5.974;2023-12-20T13:52:52;1.83;;;1.63;;
78581;SDS011;67878;46.242;5.974;2023-12-20T13:55:17;1.80;;;1.17;;
78581;SDS011;67878;46.242;5.974;2023-12-20T13:57:46;1.98;;;1.60;;
78581;SDS011;67878;46.242;5.974;2023-12-20T14:00:14;1.73;;;1.50;;
78581;SDS011;67878;46.242;5.974;2023-12-20T14:02:41;1.92;;;1.50;;
78581;SDS011;67878;46.242;5.974;2023-12-20T14:05:08;1.30;;;1.20;;
78581;SDS011;67878;46.242;5.974;2023-12-20T14:07:34;2.17;;;1.40;;
78581;SDS011;67878;46.242;5.974;2023-12-20T14:10:00;1.30;;;1.02;;
78581;SDS011;67878;46.242;5.974;2023-12-20T14:12:25;1.92;;;1.27;;
78581;SDS011;67878;46.242;5.974;2023-12-20T14:14:50;3.15;;;1.63;;
78581;SDS011;67878;46.242;5.974;2023-12-20T14:17:17;1.65;;;1.55;;
78581;SDS011;67878;46.242;5.974;2023-12-20T14:19:42;2.50;;;1.70;;
78581;SDS011;67878;46.242;5.974;2023-12-20T14:22:08;1.83;;;1.60;;
78581;SDS011;67878;46.242;5.974;2023-12-20T14:24:34;1.92;;;1.48;;
78581;SDS011;67878;46.242;5.974;2023-12-20T14:27:01;2.72;;;1.88;;
78581;SDS011;67878;46.242;5.974;2023-12-20T14:29:26;1.92;;;1.60;;
78581;SDS011;67878;46.242;5.974;2023-12-20T14:31:52;1.70;;;1.60;;
78581;SDS011;67878;46.242;5.974;2023-12-20T14:34:18;3.75;;;1.83;;
78581;SDS011;67878;46.242;5.974;2023-12-20T14:36:43;1.98;;;1.77;;
78581;SDS011;67878;46.242;5.974;2023-12-20T14:39:09;2.80;;;1.27;;
78581;SDS011;67878;46.242;5.974;2023-12-20T14:41:38;3.83;;;1.85;;
78581;SDS011;67878;46.242;5.974;2023-12-20T14:44:05;2.80;;;1.50;;
78581;SDS011;67878;46.242;5.974;2023-12-20T14:46:30;1.40;;;1.30;;
78581;SDS011;67878;46.242;5.974;2023-12-20T14:48:55;1.77;;;1.50;;
78581;SDS011;67878;46.242;5.974;2023-12-20T14:51:21;1.60;;;1.50;;
78581;SDS011;67878;46.242;5.974;2023-12-20T14:53:47;1.83;;;1.60;;
78581;SDS011;67878;46.242;5.974;2023-12-20T14:56:13;3.45;;;1.55;;